createdAt,value
2023-03-05T00:00:23.387Z,0
2023-03-05T00:01:24.480Z,0
2023-03-05T00:02:25.319Z,0
2023-03-05T00:03:26.306Z,0
2023-03-05T00:04:27.360Z,0
2023-03-05T00:05:28.443Z,0
2023-03-05T00:06:29.339Z,0
2023-03-05T00:07:30.410Z,0
2023-03-05T00:08:31.458Z,0
2023-03-05T00:09:33.421Z,0
2023-03-05T00:10:33.364Z,0
2023-03-05T00:11:34.343Z,0
2023-03-05T00:12:35.275Z,0
2023-03-05T00:13:36.282Z,0
2023-03-05T00:14:37.320Z,0
2023-03-05T00:15:38.402Z,0
2023-03-05T00:16:39.335Z,0
2023-03-05T00:17:40.295Z,0
2023-03-05T00:18:41.258Z,0
2023-03-05T00:19:42.635Z,0
2023-03-05T00:20:43.365Z,0
2023-03-05T00:21:44.479Z,0
2023-03-05T00:22:45.346Z,0
2023-03-05T00:23:46.312Z,0
2023-03-05T00:24:47.334Z,0
2023-03-05T00:25:48.394Z,0
2023-03-05T00:26:49.355Z,0
2023-03-05T00:27:50.299Z,0
2023-03-05T00:28:51.300Z,0
2023-03-05T00:29:52.384Z,0
2023-03-05T00:30:53.387Z,0
2023-03-05T00:31:54.355Z,0
2023-03-05T00:32:55.406Z,0
2023-03-05T00:33:56.317Z,0
2023-03-05T00:34:57.336Z,0
2023-03-05T00:35:58.263Z,0
2023-03-05T00:36:59.296Z,0
2023-03-05T00:38:00.377Z,0
2023-03-05T00:39:01.423Z,0
2023-03-05T00:40:02.471Z,0
2023-03-05T00:41:03.311Z,0
2023-03-05T00:42:04.299Z,0
2023-03-05T00:43:05.338Z,0
2023-03-05T00:44:06.500Z,0
2023-03-05T00:45:07.415Z,0
2023-03-05T00:46:08.433Z,0
2023-03-05T00:47:09.318Z,0
2023-03-05T00:48:10.381Z,0
2023-03-05T00:49:11.341Z,0
2023-03-05T00:50:12.356Z,0
2023-03-05T00:51:13.374Z,0
2023-03-05T00:52:14.426Z,0
2023-03-05T00:53:15.418Z,0
2023-03-05T00:54:16.330Z,0
2023-03-05T00:55:17.440Z,0
2023-03-05T00:56:18.304Z,0
2023-03-05T00:57:19.380Z,0
2023-03-05T00:58:20.399Z,0
2023-03-05T00:59:21.359Z,0
2023-03-05T01:00:22.467Z,0
2023-03-05T01:01:23.424Z,0
2023-03-05T01:02:24.385Z,0
2023-03-05T01:03:25.373Z,0
2023-03-05T01:04:26.330Z,0
2023-03-05T01:05:27.428Z,0
2023-03-05T01:06:28.309Z,0
2023-03-05T01:07:29.389Z,0
2023-03-05T01:08:30.345Z,0
2023-03-05T01:09:31.303Z,0
2023-03-05T01:10:32.383Z,0
2023-03-05T01:11:33.370Z,0
2023-03-05T01:12:34.330Z,0
2023-03-05T01:13:35.359Z,0
2023-03-05T01:14:36.312Z,0
2023-03-05T01:15:37.362Z,0
2023-03-05T01:16:38.291Z,0
2023-03-05T01:17:39.333Z,0
2023-03-05T01:18:40.353Z,0
2023-03-05T01:19:41.295Z,0
2023-03-05T01:20:42.839Z,0
2023-03-05T01:21:44.476Z,0
2023-03-05T01:22:45.416Z,0
2023-03-05T01:23:46.312Z,0
2023-03-05T01:24:47.398Z,0
2023-03-05T01:25:48.434Z,0
2023-03-05T01:26:49.398Z,0
2023-03-05T01:27:50.391Z,0
2023-03-05T01:28:51.330Z,0
2023-03-05T01:29:52.292Z,0
2023-03-05T01:30:53.344Z,0
2023-03-05T01:31:54.359Z,0
2023-03-05T01:32:55.268Z,0
2023-03-05T01:33:56.330Z,0
2023-03-05T01:34:57.310Z,0
2023-03-05T01:35:58.435Z,0
2023-03-05T01:36:59.478Z,0
2023-03-05T01:38:00.426Z,0
2023-03-05T01:39:01.352Z,0
2023-03-05T01:40:02.385Z,0
2023-03-05T01:41:03.333Z,0
2023-03-05T01:42:04.454Z,0
2023-03-05T01:43:05.510Z,0
2023-03-05T01:44:06.355Z,0
2023-03-05T01:45:07.385Z,0
2023-03-05T01:46:08.466Z,0
2023-03-05T01:47:09.336Z,0
2023-03-05T01:48:10.447Z,0
2023-03-05T01:49:11.310Z,0
2023-03-05T01:50:12.353Z,0
2023-03-05T01:51:13.391Z,0
2023-03-05T01:52:14.274Z,0
2023-03-05T01:53:15.370Z,0
2023-03-05T01:54:16.329Z,0
2023-03-05T01:55:17.379Z,0
2023-03-05T01:56:18.374Z,0
2023-03-05T01:57:19.330Z,0
2023-03-05T01:58:20.367Z,0
2023-03-05T01:59:21.250Z,0
2023-03-05T02:00:22.513Z,0
2023-03-05T02:01:23.470Z,0
2023-03-05T02:02:24.348Z,0.13
2023-03-05T02:06:35.351Z,0
2023-03-05T02:07:36.491Z,0
2023-03-05T02:08:37.259Z,0
2023-03-05T02:09:38.339Z,0
2023-03-05T02:10:39.353Z,0
2023-03-05T02:11:40.312Z,0
2023-03-05T02:12:41.472Z,0
2023-03-05T02:13:42.473Z,0.09
2023-03-05T02:14:43.432Z,0
2023-03-05T02:15:44.378Z,0
2023-03-05T02:16:45.635Z,0
2023-03-05T02:17:46.354Z,0.06
2023-03-05T02:18:47.474Z,0.08
2023-03-05T02:19:48.357Z,0
2023-03-05T02:20:49.363Z,0
2023-03-05T02:21:50.396Z,0
2023-03-05T02:22:51.380Z,0
2023-03-05T02:23:52.295Z,0
2023-03-05T02:24:53.351Z,0
2023-03-05T02:25:54.343Z,0
2023-03-05T02:26:55.319Z,0
2023-03-05T02:27:56.396Z,0
2023-03-05T02:28:57.333Z,0
2023-03-05T02:29:58.284Z,0
2023-03-05T02:30:59.496Z,0
2023-03-05T02:32:00.593Z,0
2023-03-05T02:33:01.535Z,0
2023-03-05T02:34:02.456Z,0
2023-03-05T02:35:03.401Z,0
2023-03-05T02:36:04.303Z,0
2023-03-05T02:37:05.424Z,0
2023-03-05T02:38:06.307Z,0
2023-03-05T02:39:07.434Z,0
2023-03-05T02:40:08.316Z,0
2023-03-05T02:41:09.364Z,0
2023-03-05T02:42:10.423Z,0.18
2023-03-05T02:43:11.402Z,0.14
2023-03-05T02:44:12.396Z,0
2023-03-05T02:45:13.474Z,0
2023-03-05T02:46:14.486Z,0
2023-03-05T02:47:15.539Z,0.17
2023-03-05T02:48:16.397Z,0.12
2023-03-05T02:49:17.435Z,0.07
2023-03-05T02:50:18.397Z,0.05
2023-03-05T02:51:19.336Z,0.17
2023-03-05T02:52:20.355Z,0
2023-03-05T02:53:21.392Z,0.09
2023-03-05T02:54:22.440Z,0.08
2023-03-05T02:55:23.377Z,0
2023-03-05T02:56:24.379Z,0
2023-03-05T02:57:25.422Z,0
2023-03-05T02:58:26.419Z,0
2023-03-05T02:59:27.476Z,0
2023-03-05T03:00:28.376Z,0
2023-03-05T03:01:29.383Z,0
2023-03-05T03:02:30.399Z,0.05
2023-03-05T03:03:31.431Z,0.14
2023-03-05T03:04:32.541Z,0
2023-03-05T03:05:33.405Z,0
2023-03-05T03:06:34.379Z,0
2023-03-05T03:07:35.410Z,0
2023-03-05T03:08:36.316Z,0
2023-03-05T03:09:37.490Z,0
2023-03-05T03:10:38.403Z,0
2023-03-05T03:11:39.356Z,0
2023-03-05T03:12:40.437Z,0
2023-03-05T03:13:41.380Z,0
2023-03-05T03:14:42.335Z,0
2023-03-05T03:15:43.386Z,0
2023-03-05T03:16:44.486Z,0
2023-03-05T03:17:45.424Z,0
2023-03-05T03:18:46.378Z,0
2023-03-05T03:19:47.436Z,0
2023-03-05T03:20:48.326Z,0
2023-03-05T03:21:49.360Z,0
2023-03-05T03:22:50.458Z,0
2023-03-05T03:23:51.301Z,0
2023-03-05T03:24:52.446Z,0
2023-03-05T03:25:53.399Z,0
2023-03-05T03:26:54.338Z,0
2023-03-05T03:27:55.439Z,0
2023-03-05T03:28:56.467Z,0
2023-03-05T03:29:57.440Z,0
2023-03-05T03:30:58.448Z,0
2023-03-05T03:31:59.376Z,0
2023-03-05T03:33:00.419Z,0
2023-03-05T03:34:01.443Z,0
2023-03-05T03:35:02.426Z,0
2023-03-05T03:36:03.374Z,0
2023-03-05T03:37:04.442Z,0
2023-03-05T03:38:05.467Z,0
2023-03-05T03:39:06.424Z,0
2023-03-05T03:40:07.621Z,0
2023-03-05T03:41:08.405Z,0
2023-03-05T03:42:09.441Z,0
2023-03-05T03:43:10.472Z,0
2023-03-05T03:44:11.383Z,0
2023-03-05T03:45:12.439Z,0
2023-03-05T03:46:13.619Z,0
2023-03-05T03:47:14.482Z,0
2023-03-05T03:48:15.511Z,0
2023-03-05T03:49:16.472Z,0
2023-03-05T03:50:17.493Z,0
2023-03-05T03:51:18.500Z,0
2023-03-05T03:52:19.381Z,0
2023-03-05T03:53:20.422Z,0
2023-03-05T03:54:21.441Z,0
2023-03-05T03:55:22.386Z,0
2023-03-05T03:56:23.381Z,0
2023-03-05T03:57:24.458Z,0
2023-03-05T03:58:25.383Z,0
2023-03-05T03:59:26.364Z,0
2023-03-05T04:00:27.462Z,0
2023-03-05T04:01:28.475Z,0
2023-03-05T04:02:29.494Z,0
2023-03-05T04:03:30.488Z,0
2023-03-05T04:04:31.532Z,0
2023-03-05T04:05:32.470Z,0
2023-03-05T04:06:33.486Z,0
2023-03-05T04:07:34.422Z,0
2023-03-05T04:08:35.387Z,0
2023-03-05T04:09:36.440Z,0
2023-03-05T04:10:37.446Z,0
2023-03-05T04:11:38.446Z,0
2023-03-05T04:12:39.465Z,0
2023-03-05T04:13:40.482Z,0
2023-03-05T04:14:41.449Z,0.08
2023-03-05T04:15:42.413Z,0
2023-03-05T04:16:43.462Z,0
2023-03-05T04:17:44.351Z,0
2023-03-05T04:18:45.428Z,0
2023-03-05T04:19:46.385Z,0
2023-03-05T04:20:47.403Z,0
2023-03-05T04:21:48.565Z,0
2023-03-05T04:22:49.422Z,0
2023-03-05T04:23:50.433Z,0
2023-03-05T04:24:51.484Z,0
2023-03-05T04:25:52.367Z,0
2023-03-05T04:26:53.464Z,0
2023-03-05T04:27:54.402Z,0
2023-03-05T04:28:55.407Z,0
2023-03-05T04:29:56.386Z,0
2023-03-05T04:30:57.460Z,0
2023-03-05T04:31:58.469Z,0
2023-03-05T04:32:59.422Z,0
2023-03-05T04:34:00.404Z,0
2023-03-05T04:35:01.429Z,0
2023-03-05T04:36:02.422Z,0
2023-03-05T04:37:03.377Z,0
2023-03-05T04:38:04.385Z,0
2023-03-05T04:39:05.417Z,0
2023-03-05T04:40:06.522Z,0
2023-03-05T04:41:07.515Z,0
2023-03-05T04:42:08.507Z,0
2023-03-05T04:43:09.476Z,0
2023-03-05T04:44:10.478Z,0
2023-03-05T04:45:11.418Z,0
2023-03-05T04:46:12.476Z,0
2023-03-05T04:47:13.434Z,0
2023-03-05T04:48:14.446Z,0
2023-03-05T04:49:15.437Z,0
2023-03-05T04:50:16.458Z,0.04
2023-03-05T04:51:17.435Z,0
2023-03-05T04:52:18.534Z,0
2023-03-05T04:53:19.483Z,0
2023-03-05T04:54:20.398Z,0
2023-03-05T04:55:21.461Z,0
2023-03-05T04:56:22.456Z,0
2023-03-05T04:57:24.123Z,0.05
2023-03-05T04:58:24.379Z,0.18
2023-03-05T04:59:25.395Z,0
2023-03-05T05:00:26.521Z,0
2023-03-05T05:01:27.410Z,0
2023-03-05T05:02:28.517Z,0
2023-03-05T05:03:29.474Z,0
2023-03-05T05:04:30.427Z,0
2023-03-05T05:05:31.440Z,0
2023-03-05T05:06:32.386Z,0
2023-03-05T05:07:33.576Z,0
2023-03-05T05:08:34.635Z,0
2023-03-05T05:09:35.455Z,0
2023-03-05T05:10:36.537Z,0
2023-03-05T05:11:37.427Z,0
2023-03-05T05:12:38.497Z,0
2023-03-05T05:13:39.375Z,0
2023-03-05T05:14:40.458Z,0
2023-03-05T05:15:41.596Z,0
2023-03-05T05:16:42.425Z,0
2023-03-05T05:17:43.466Z,0
2023-03-05T05:18:44.416Z,0
2023-03-05T05:19:45.407Z,0
2023-03-05T05:20:46.396Z,0
2023-03-05T05:21:47.454Z,0
2023-03-05T05:22:48.516Z,0
2023-03-05T05:23:49.421Z,0
2023-03-05T05:24:50.419Z,0
2023-03-05T05:25:51.346Z,0
2023-03-05T05:26:52.416Z,0
2023-03-05T05:27:53.506Z,0
2023-03-05T05:28:54.494Z,0
2023-03-05T05:29:55.476Z,0
2023-03-05T05:30:56.437Z,0
2023-03-05T05:31:57.511Z,0
2023-03-05T05:32:58.507Z,0
2023-03-05T05:33:59.525Z,0
2023-03-05T05:35:00.564Z,0
2023-03-05T05:36:01.450Z,0
2023-03-05T05:37:02.501Z,0
2023-03-05T05:38:03.521Z,0
2023-03-05T05:39:04.619Z,0
2023-03-05T05:40:05.620Z,0
2023-03-05T05:41:06.528Z,0
2023-03-05T05:42:07.528Z,0
2023-03-05T05:43:08.394Z,0
2023-03-05T05:44:09.421Z,0
2023-03-05T05:45:10.531Z,0
2023-03-05T05:46:11.576Z,0
2023-03-05T05:47:12.443Z,0
2023-03-05T05:48:13.445Z,0.11
2023-03-05T05:49:14.443Z,0
2023-03-05T05:50:15.454Z,0
2023-03-05T05:51:16.421Z,0.07
2023-03-05T05:52:17.504Z,0
2023-03-05T05:53:18.444Z,0
2023-03-05T05:54:19.511Z,0
2023-03-05T05:55:20.433Z,0.09
2023-03-05T05:56:21.452Z,0.1
2023-03-05T05:57:22.442Z,0
2023-03-05T05:58:23.541Z,0.14
2023-03-05T05:59:24.585Z,0.09
2023-03-05T06:00:25.486Z,0.05
2023-03-05T06:01:26.454Z,0.05
2023-03-05T06:02:27.480Z,0.3
2023-03-05T06:03:28.486Z,0.07
2023-03-05T06:04:29.485Z,0.15
2023-03-05T06:05:30.514Z,0.49
2023-03-05T06:06:31.401Z,0.21
2023-03-05T06:07:32.401Z,0.18
2023-03-05T06:08:33.528Z,0.09
2023-03-05T06:09:34.483Z,0.06
2023-03-05T06:10:35.481Z,0.18
2023-03-05T06:11:36.570Z,0.2
2023-03-05T06:12:37.481Z,0.36
2023-03-05T06:13:38.445Z,0
2023-03-05T06:14:39.462Z,0.15
2023-03-05T06:15:40.478Z,0.1
2023-03-05T06:16:41.537Z,0.37
2023-03-05T06:17:42.453Z,0.26
2023-03-05T06:18:43.482Z,0.54
2023-03-05T06:19:44.556Z,0.4
2023-03-05T06:20:45.518Z,0.18
2023-03-05T06:21:46.647Z,0.23
2023-03-05T06:22:47.605Z,0.46
2023-03-05T06:23:48.426Z,0.27
2023-03-05T06:24:49.481Z,0.47
2023-03-05T06:25:50.521Z,0.42
2023-03-05T06:26:51.426Z,0.17
2023-03-05T06:27:52.525Z,0.26
2023-03-05T06:28:53.446Z,0.08
2023-03-05T06:29:54.480Z,0.19
2023-03-05T06:30:55.526Z,0.05
2023-03-05T06:31:56.560Z,0.35
2023-03-05T06:32:57.533Z,0.64
2023-03-05T06:33:58.488Z,0.34
2023-03-05T06:34:59.550Z,0.44
2023-03-05T06:36:00.590Z,0.73
2023-03-05T06:37:01.462Z,0.45
2023-03-05T06:38:02.561Z,1.11
2023-03-05T06:39:03.465Z,0.89
2023-03-05T06:40:04.460Z,0.19
2023-03-05T06:41:05.540Z,0.14
2023-03-05T06:42:06.498Z,0.46
2023-03-05T06:43:07.596Z,0.29
2023-03-05T06:44:08.529Z,0.35
2023-03-05T06:45:09.629Z,0.89
2023-03-05T06:46:10.616Z,0.37
2023-03-05T06:47:11.465Z,0.61
2023-03-05T06:48:12.541Z,0.32
2023-03-05T06:49:13.562Z,0.6
2023-03-05T06:50:14.590Z,0.36
2023-03-05T06:51:15.507Z,0.27
2023-03-05T06:52:16.441Z,0.41
2023-03-05T06:53:17.543Z,0.39
2023-03-05T06:54:18.520Z,0.45
2023-03-05T06:55:19.561Z,0.42
2023-03-05T06:56:20.621Z,0.18
2023-03-05T06:57:21.541Z,0.33
2023-03-05T06:58:22.526Z,0.2
2023-03-05T06:59:23.632Z,0.63
2023-03-05T07:00:24.584Z,0.08
2023-03-05T07:01:25.488Z,0
2023-03-05T07:02:26.606Z,0.13
2023-03-05T07:03:27.572Z,0.29
2023-03-05T07:04:28.560Z,0
2023-03-05T07:05:29.439Z,0.18
2023-03-05T07:06:30.549Z,0.41
2023-03-05T07:07:31.585Z,0.43
2023-03-05T07:08:32.483Z,0.85
2023-03-05T07:09:33.632Z,0.74
2023-03-05T07:10:34.586Z,0.29
2023-03-05T07:11:35.442Z,0.26
2023-03-05T07:12:36.602Z,0.16
2023-03-05T07:13:37.501Z,0.22
2023-03-05T07:14:38.582Z,0.18
2023-03-05T07:15:39.651Z,0.14
2023-03-05T07:16:40.552Z,0.12
2023-03-05T07:17:41.440Z,0.19
2023-03-05T07:18:42.516Z,0.61
2023-03-05T07:19:43.560Z,0.95
2023-03-05T07:20:44.661Z,0.69
2023-03-05T07:21:45.575Z,0.7
2023-03-05T07:22:46.569Z,0.24
2023-03-05T07:23:47.677Z,0.19
2023-03-05T07:24:48.500Z,0.22
2023-03-05T07:25:49.528Z,0.48
2023-03-05T07:26:50.540Z,0.87
2023-03-05T07:27:51.453Z,1.06
2023-03-05T07:28:52.376Z,0.66
2023-03-05T07:29:53.502Z,0.42
2023-03-05T07:30:54.439Z,0.51
2023-03-05T07:31:55.482Z,0.54
2023-03-05T07:32:56.457Z,0.24
2023-03-05T07:33:57.470Z,0.83
2023-03-05T07:34:58.541Z,1.14
2023-03-05T07:35:59.638Z,0.54
2023-03-05T07:37:00.571Z,0.83
2023-03-05T07:38:01.546Z,0.84
2023-03-05T07:39:02.460Z,0.6
2023-03-05T07:40:03.534Z,0.73
2023-03-05T07:41:04.568Z,0.5
2023-03-05T07:42:05.571Z,0.98
2023-03-05T07:43:06.554Z,0.78
2023-03-05T07:44:07.509Z,0.55
2023-03-05T07:45:08.485Z,0.87
2023-03-05T07:46:09.529Z,0.51
2023-03-05T07:47:10.527Z,0.34
2023-03-05T07:48:11.517Z,0.17
2023-03-05T07:49:12.573Z,0.2
2023-03-05T07:50:13.454Z,0.12
2023-03-05T07:51:14.522Z,0.63
2023-03-05T07:52:15.566Z,0.63
2023-03-05T07:53:16.526Z,0.9
2023-03-05T07:54:17.476Z,0.41
2023-03-05T07:55:18.543Z,0.85
2023-03-05T07:56:19.528Z,0.7
2023-03-05T07:57:20.583Z,0.95
2023-03-05T07:58:21.525Z,0.59
2023-03-05T07:59:22.537Z,1.09
2023-03-05T08:00:23.487Z,0.94
2023-03-05T08:01:24.506Z,0.97
2023-03-05T08:02:25.536Z,1.51
2023-03-05T08:03:26.507Z,0.48
2023-03-05T08:04:27.611Z,0.58
2023-03-05T08:05:28.563Z,0.7
2023-03-05T08:06:29.542Z,0.64
2023-03-05T08:07:30.523Z,0.67
2023-03-05T08:08:31.488Z,0.87
2023-03-05T08:09:32.472Z,0.71
2023-03-05T08:10:33.470Z,1
2023-03-05T08:11:34.498Z,0.8
2023-03-05T08:12:35.477Z,0.75
2023-03-05T08:13:36.427Z,1.04
2023-03-05T08:14:37.471Z,0.54
2023-03-05T08:15:38.609Z,0.76
2023-03-05T08:16:39.439Z,0.59
2023-03-05T08:17:40.464Z,0.61
2023-03-05T08:18:41.450Z,0.97
2023-03-05T08:19:42.504Z,0.9
2023-03-05T08:20:43.626Z,0.46
2023-03-05T08:21:44.842Z,0.48
2023-03-05T08:22:45.489Z,0.25
2023-03-05T08:23:46.569Z,0.12
2023-03-05T08:24:47.565Z,0.24
2023-03-05T08:25:48.481Z,0.24
2023-03-05T08:26:49.481Z,0.58
2023-03-05T08:27:50.568Z,0.74
2023-03-05T08:28:51.584Z,0.82
2023-03-05T08:29:52.464Z,0.78
2023-03-05T08:30:53.538Z,1
2023-03-05T08:31:54.501Z,0.82
2023-03-05T08:32:55.510Z,0.49
2023-03-05T08:33:56.442Z,0.79
2023-03-05T08:34:57.523Z,0.49
2023-03-05T08:35:58.564Z,0.43
2023-03-05T08:36:59.492Z,0.33
2023-03-05T08:38:00.577Z,0.32
2023-03-05T08:39:01.500Z,0.35
2023-03-05T08:40:02.587Z,0.56
2023-03-05T08:41:03.572Z,0.26
2023-03-05T08:42:04.600Z,0.48
2023-03-05T08:43:05.561Z,0.7
2023-03-05T08:44:06.580Z,0.17
2023-03-05T08:45:07.582Z,0.56
2023-03-05T08:46:11.625Z,0.48
2023-03-05T08:47:12.521Z,0.76
2023-03-05T08:48:13.643Z,0.65
2023-03-05T08:49:14.640Z,0.59
2023-03-05T08:50:15.644Z,0.91
2023-03-05T08:51:16.596Z,0.6
2023-03-05T08:52:17.502Z,0.35
2023-03-05T08:53:18.591Z,0.36
2023-03-05T08:54:19.544Z,0.39
2023-03-05T08:55:20.564Z,0.51
2023-03-05T08:56:21.545Z,0.44
2023-03-05T08:57:22.583Z,0.37
2023-03-05T08:58:23.506Z,0.77
2023-03-05T08:59:24.569Z,1.13
2023-03-05T09:00:25.566Z,0.87
2023-03-05T09:01:26.549Z,0.4
2023-03-05T09:02:27.651Z,0.6
2023-03-05T09:03:28.542Z,0.62
2023-03-05T09:04:29.560Z,1.11
2023-03-05T09:05:30.563Z,1.03
2023-03-05T09:06:31.643Z,1.19
2023-03-05T09:07:32.591Z,1.09
2023-03-05T09:08:33.588Z,0.38
2023-03-05T09:09:34.547Z,0.58
2023-03-05T09:10:35.571Z,0.63
2023-03-05T09:11:36.591Z,0.61
2023-03-05T09:12:37.603Z,1.23
2023-03-05T09:13:38.564Z,1
2023-03-05T09:14:39.516Z,0.98
2023-03-05T09:15:40.641Z,0.8
2023-03-05T09:16:41.799Z,0.6
2023-03-05T09:17:42.624Z,0.13
2023-03-05T09:18:43.527Z,0.38
2023-03-05T09:19:44.889Z,0.15
2023-03-05T09:20:45.631Z,0.48
2023-03-05T09:21:46.491Z,0.46
2023-03-05T09:22:47.602Z,0.7
2023-03-05T09:23:48.602Z,0.52
2023-03-05T09:24:49.621Z,0.34
2023-03-05T09:25:50.588Z,0.68
2023-03-05T09:26:51.660Z,0.42
2023-03-05T09:27:52.549Z,0.86
2023-03-05T09:28:53.577Z,0.33
2023-03-05T09:29:54.669Z,0.31
2023-03-05T09:30:55.698Z,0.49
2023-03-05T09:31:56.662Z,0.22
2023-03-05T09:32:57.722Z,0.69
2023-03-05T09:33:58.778Z,0.5
2023-03-05T09:34:59.593Z,0.48
2023-03-05T09:36:00.600Z,0.39
2023-03-05T09:37:01.522Z,0.2
2023-03-05T09:38:02.523Z,0.61
2023-03-05T09:39:03.594Z,0.92
2023-03-05T09:40:04.713Z,0.69
2023-03-05T09:41:05.583Z,0.67
2023-03-05T09:42:07.795Z,0.76
2023-03-05T09:43:07.629Z,0.6
2023-03-05T09:44:08.529Z,0.52
2023-03-05T09:45:09.570Z,0.48
2023-03-05T09:46:10.721Z,0.18
2023-03-05T09:47:11.579Z,0.23
2023-03-05T09:48:12.564Z,0.16
2023-03-05T09:49:13.659Z,0.22
2023-03-05T09:50:14.742Z,0.17
2023-03-05T09:51:15.541Z,0.57
2023-03-05T09:52:16.581Z,0.48
2023-03-05T09:53:17.640Z,0.21
2023-03-05T09:54:18.577Z,0.44
2023-03-05T09:55:19.582Z,0.39
2023-03-05T09:56:20.642Z,0.54
2023-03-05T09:57:21.554Z,0.41
2023-03-05T09:58:22.649Z,0.52
2023-03-05T09:59:23.602Z,0.5
2023-03-05T10:00:24.573Z,0.45
2023-03-05T10:01:25.561Z,0
2023-03-05T10:02:26.547Z,0.54
2023-03-05T10:03:27.702Z,0.88
2023-03-05T10:04:28.599Z,0.76
2023-03-05T10:05:29.567Z,0.28
2023-03-05T10:06:30.678Z,0.12
2023-03-05T10:07:31.761Z,0.29
2023-03-05T10:08:32.587Z,0.28
2023-03-05T10:09:34.964Z,0.45
2023-03-05T10:10:34.524Z,0.24
2023-03-05T10:11:35.537Z,0.21
2023-03-05T10:12:36.583Z,0.31
2023-03-05T10:13:37.581Z,0.45
2023-03-05T10:14:38.672Z,0.38
2023-03-05T10:15:39.560Z,0.34
2023-03-05T10:16:40.597Z,0.59
2023-03-05T10:17:41.706Z,0.18
2023-03-05T10:18:42.584Z,0.42
2023-03-05T10:19:43.542Z,0.47
2023-03-05T10:20:44.984Z,0.58
2023-03-05T10:21:46.826Z,0.55
2023-03-05T10:22:47.623Z,0.33
2023-03-05T10:23:48.558Z,0.89
2023-03-05T10:24:49.608Z,0.47
2023-03-05T10:25:50.561Z,0.25
2023-03-05T10:26:51.613Z,0.33
2023-03-05T10:27:54.322Z,0.32
2023-03-05T10:28:53.661Z,0.11
2023-03-05T10:29:54.710Z,0.1
2023-03-05T10:30:55.683Z,0.36
2023-03-05T10:31:56.801Z,0.15
2023-03-05T10:32:57.641Z,0.33
2023-03-05T10:33:58.522Z,0.16
2023-03-05T10:34:59.552Z,0.29
2023-03-05T10:36:00.583Z,0.51
2023-03-05T10:37:01.746Z,0.26
2023-03-05T10:38:02.729Z,0.36
2023-03-05T10:39:03.594Z,0.38
2023-03-05T10:40:04.691Z,0.41
2023-03-05T10:41:05.582Z,0.47
2023-03-05T10:42:06.642Z,0.29
2023-03-05T10:43:07.564Z,0.19
2023-03-05T10:44:08.500Z,0.44
2023-03-05T10:45:09.583Z,0.09
2023-03-05T10:46:10.644Z,0.07
2023-03-05T10:47:11.703Z,0.28
2023-03-05T10:48:12.684Z,0.38
2023-03-05T10:49:13.606Z,0.65
2023-03-05T10:50:14.584Z,0.47
2023-03-05T10:51:15.615Z,0.4
2023-03-05T10:52:18.521Z,0.6
2023-03-05T10:53:17.608Z,0.12
2023-03-05T10:54:18.645Z,0.26
2023-03-05T10:55:19.637Z,0.29
2023-03-05T10:56:20.723Z,0.22
2023-03-05T10:57:21.582Z,0.18
2023-03-05T10:58:24.642Z,0.16
2023-03-05T10:59:23.623Z,0.52
2023-03-05T11:00:24.742Z,0.21
2023-03-05T11:01:25.843Z,0.28
2023-03-05T11:02:26.677Z,0.7
2023-03-05T11:03:27.640Z,0.55
2023-03-05T11:04:28.589Z,0.45
2023-03-05T11:05:29.565Z,0.56
2023-03-05T11:06:30.607Z,0.45
2023-03-05T11:07:31.707Z,0.25
2023-03-05T11:08:32.900Z,0.28
2023-03-05T11:09:33.608Z,0.53
2023-03-05T11:10:34.554Z,0.79
2023-03-05T11:11:35.578Z,0.36
2023-03-05T11:12:36.560Z,0.28
2023-03-05T11:13:37.617Z,0.48
2023-03-05T11:14:38.603Z,0.61
2023-03-05T11:15:39.709Z,0.14
2023-03-05T11:16:40.640Z,0.32
2023-03-05T11:17:41.685Z,0.25
2023-03-05T11:18:42.736Z,0.24
2023-03-05T11:19:43.635Z,0.23
2023-03-05T11:20:44.997Z,0.37
2023-03-05T11:21:45.617Z,0.43
2023-03-05T11:22:46.637Z,0.1
2023-03-05T11:23:47.617Z,0.13
2023-03-05T11:24:48.611Z,0.07
2023-03-05T11:25:49.719Z,0.29
2023-03-05T11:26:50.720Z,0.28
2023-03-05T11:27:54.825Z,0.47
2023-03-05T11:28:55.690Z,0.51
2023-03-05T11:29:56.735Z,0.25
2023-03-05T11:30:57.820Z,0.4
2023-03-05T11:31:58.770Z,0.7
2023-03-05T11:32:59.697Z,0.56
2023-03-05T11:34:00.615Z,0.31
2023-03-05T11:35:01.715Z,0.55
2023-03-05T11:36:03.696Z,0.52
2023-03-05T11:37:04.638Z,0.53
2023-03-05T11:38:05.602Z,0.66
2023-03-05T11:39:06.724Z,0.35
2023-03-05T11:40:07.781Z,0.5
2023-03-05T11:41:08.578Z,0.35
2023-03-05T11:42:09.549Z,0.72
2023-03-05T11:43:10.618Z,0.55
2023-03-05T11:44:13.333Z,0.35
2023-03-05T11:45:12.662Z,0.26
2023-03-05T11:46:13.836Z,0.45
2023-03-05T11:47:14.579Z,0.24
2023-03-05T11:48:15.550Z,0.08
2023-03-05T11:49:16.631Z,0.55
2023-03-05T11:50:17.734Z,0.79
2023-03-05T11:51:18.648Z,0.96
2023-03-05T11:52:19.606Z,0.43
2023-03-05T11:53:20.674Z,0.65
2023-03-05T11:54:21.685Z,0.61
2023-03-05T11:55:22.707Z,1.04
2023-03-05T11:56:23.591Z,0.79
2023-03-05T11:57:24.587Z,1.19
2023-03-05T11:58:25.593Z,1.85
2023-03-05T11:59:26.680Z,1.18
2023-03-05T12:00:27.768Z,0.48
2023-03-05T12:01:28.803Z,0.62
2023-03-05T12:02:29.755Z,0.42
2023-03-05T12:03:30.660Z,0.32
2023-03-05T12:04:31.634Z,0.76
2023-03-05T12:05:32.663Z,0.63
2023-03-05T12:06:33.644Z,0.58
2023-03-05T12:07:34.648Z,0.5
2023-03-05T12:08:35.679Z,1.17
2023-03-05T12:09:36.561Z,1.4
2023-03-05T12:10:37.600Z,1.44
2023-03-05T12:11:38.597Z,0.6
2023-03-05T12:12:39.665Z,0.99
2023-03-05T12:13:42.417Z,0.56
2023-03-05T12:14:41.740Z,0.79
2023-03-05T12:15:42.660Z,0.84
2023-03-05T12:16:43.882Z,0.83
2023-03-05T12:17:45.168Z,0.72
2023-03-05T12:18:46.625Z,0.65
2023-03-05T12:19:47.636Z,0.6
2023-03-05T12:20:48.978Z,0.39
2023-03-05T12:21:49.666Z,0.69
2023-03-05T12:22:50.599Z,0.25
2023-03-05T12:23:51.574Z,0.12
2023-03-05T12:24:52.570Z,0.28
2023-03-05T12:25:53.669Z,0.48
2023-03-05T12:26:54.717Z,0.28
2023-03-05T12:27:55.767Z,0.06
2023-03-05T12:28:56.606Z,0.34
2023-03-05T12:29:57.726Z,0.1
2023-03-05T12:30:58.865Z,0.22
2023-03-05T12:31:59.725Z,0.24
2023-03-05T12:33:00.694Z,0.39
2023-03-05T12:34:02.066Z,0.44
2023-03-05T12:35:02.709Z,0.64
2023-03-05T12:36:03.669Z,0.44
2023-03-05T12:37:04.795Z,0.47
2023-03-05T12:38:17.346Z,0.88
2023-03-05T12:39:06.667Z,0.41
2023-03-05T12:40:07.776Z,0.76
2023-03-05T12:41:08.622Z,0.91
2023-03-05T12:42:09.751Z,0.34
2023-03-05T12:43:10.779Z,0.37
2023-03-05T12:44:11.710Z,0.95
2023-03-05T12:45:12.631Z,0.4
2023-03-05T12:46:13.661Z,0
2023-03-05T12:47:14.730Z,0.39
2023-03-05T12:48:15.682Z,0.29
2023-03-05T12:49:16.681Z,0.08
2023-03-05T12:50:17.639Z,0.15
2023-03-05T12:51:18.707Z,0.24
2023-03-05T12:52:19.628Z,0
2023-03-05T12:53:20.706Z,0.37
2023-03-05T12:54:21.649Z,0.15
2023-03-05T12:55:22.674Z,0.56
2023-03-05T12:56:23.679Z,0
2023-03-05T12:57:24.721Z,0
2023-03-05T12:58:25.729Z,0
2023-03-05T12:59:26.868Z,0.57
2023-03-05T13:00:27.791Z,0.3
2023-03-05T13:01:28.760Z,0
2023-03-05T13:02:29.679Z,0
2023-03-05T13:03:30.702Z,0
2023-03-05T13:04:31.724Z,0.53
2023-03-05T13:05:32.736Z,0.11
2023-03-05T13:06:33.727Z,0.25
2023-03-05T13:07:34.811Z,0
2023-03-05T13:08:35.673Z,0.11
2023-03-05T13:09:36.703Z,0.11
2023-03-05T13:10:37.766Z,0.09
2023-03-05T13:11:38.664Z,0
2023-03-05T13:12:39.716Z,0.16
2023-03-05T13:13:40.719Z,0.44
2023-03-05T13:14:51.608Z,0.32
2023-03-05T13:15:52.688Z,0.28
2023-03-05T13:16:53.698Z,0.63
2023-03-05T13:17:54.644Z,0.21
2023-03-05T13:18:55.699Z,0.1
2023-03-05T13:19:56.689Z,0.3
2023-03-05T13:20:57.731Z,0.4
2023-03-05T13:21:58.883Z,0.14
2023-03-05T13:22:59.717Z,0.52
2023-03-05T13:24:00.638Z,0
2023-03-05T13:25:01.677Z,0.22
2023-03-05T13:26:02.632Z,0.13
2023-03-05T13:27:03.599Z,0.17
2023-03-05T13:28:04.672Z,0.38
2023-03-05T13:29:05.681Z,0.44
2023-03-05T13:30:06.758Z,0.41
2023-03-05T13:31:07.814Z,0.29
2023-03-05T13:32:08.676Z,0
2023-03-05T13:33:09.744Z,0.24
2023-03-05T13:34:10.818Z,0.14
2023-03-05T13:35:11.761Z,0.26
2023-03-05T13:36:12.694Z,0.21
2023-03-05T13:37:13.674Z,0.26
2023-03-05T13:38:14.795Z,0.68
2023-03-05T13:39:15.792Z,0.33
2023-03-05T13:40:16.908Z,0.17
2023-03-05T13:41:18.054Z,0.23
2023-03-05T13:42:18.691Z,0.16
2023-03-05T13:43:19.706Z,0.13
2023-03-05T13:44:20.737Z,0
2023-03-05T13:45:21.659Z,0.09
2023-03-05T13:46:22.644Z,0
2023-03-05T13:47:23.673Z,0
2023-03-05T13:48:24.621Z,0
2023-03-05T13:49:25.756Z,0.17
2023-03-05T13:50:26.856Z,0.23
2023-03-05T13:51:27.755Z,0
2023-03-05T13:52:28.661Z,0.13
2023-03-05T13:53:29.690Z,0.2
2023-03-05T13:54:30.674Z,0.11
2023-03-05T13:55:31.638Z,0
2023-03-05T13:56:32.672Z,0.4
2023-03-05T13:57:33.718Z,0
2023-03-05T13:58:34.803Z,0.31
2023-03-05T13:59:35.638Z,0.12
2023-03-05T14:00:36.675Z,0.12
2023-03-05T14:01:37.704Z,0.13
2023-03-05T14:02:38.694Z,0.25
2023-03-05T14:03:39.604Z,0.36
2023-03-05T14:04:41.763Z,0.15
2023-03-05T14:05:42.738Z,0
2023-03-05T14:06:43.672Z,0
2023-03-05T14:07:44.795Z,0
2023-03-05T14:08:45.677Z,0
2023-03-05T14:09:46.739Z,0
2023-03-05T14:10:47.813Z,0.07
2023-03-05T14:11:48.754Z,0
2023-03-05T14:12:49.779Z,0
2023-03-05T14:13:50.661Z,0